Time;durP1;ratioP1;P1;durP2;ratioP2;P2;SDS_P1;SDS_P2;PMS_P1;PMS_P2;Temp;Humidity;BMP_temperature;BMP_pressure;BME280_temperature;BME280_humidity;BME280_pressure;Samples;Min_cycle;Max_cycle;Signal;HPM_P1;HPM_P2
2024/02/04 00:00:20;;;;;;;3.40;2.65;;;11.00;99.90;;;;;;4137180;28;20037;-92
2024/02/04 00:02:22;;;;;;;2.83;2.20;;;10.90;99.90;;;;;;4160027;28;20041;-91
2024/02/04 00:04:23;;;;;;;2.78;2.10;;;10.90;99.90;;;;;;4143319;28;20065;-92
2024/02/04 00:06:24;;;;;;;2.35;2.00;;;10.90;99.90;;;;;;4142351;28;20175;-92
2024/02/04 00:08:24;;;;;;;2.20;1.73;;;10.90;99.90;;;;;;4143510;28;20149;-91
2024/02/04 00:10:26;;;;;;;2.15;1.95;;;10.90;99.90;;;;;;4140350;28;20030;-92
2024/02/04 00:12:27;;;;;;;2.50;1.75;;;10.90;99.90;;;;;;4140594;28;20034;-92
2024/02/04 00:14:27;;;;;;;2.72;1.83;;;10.80;99.90;;;;;;4142167;28;20060;-92
2024/02/04 00:16:29;;;;;;;1.73;1.63;;;10.90;99.90;;;;;;4159610;28;20034;-91
2024/02/04 00:18:30;;;;;;;1.88;1.77;;;10.90;99.90;;;;;;4139785;28;20119;-93
2024/02/04 00:20:32;;;;;;;2.15;1.95;;;10.90;99.90;;;;;;4143073;28;20064;-92
2024/02/04 00:22:34;;;;;;;2.38;2.03;;;10.90;99.90;;;;;;4173516;28;20025;-91
2024/02/04 00:24:35;;;;;;;2.13;1.92;;;10.90;99.90;;;;;;4151706;28;20013;-92
2024/02/04 00:26:35;;;;;;;2.65;1.98;;;10.90;99.90;;;;;;4155893;28;20026;-92
2024/02/04 00:28:36;;;;;;;2.75;2.15;;;11.00;99.90;;;;;;4164886;28;20045;-92
2024/02/04 00:30:40;;;;;;;2.40;2.20;;;10.90;99.90;;;;;;4159471;28;21044;-91
2024/02/04 00:32:41;;;;;;;2.47;1.90;;;10.90;99.90;;;;;;4160771;28;20459;-92
2024/02/04 00:34:42;;;;;;;2.92;2.03;;;10.90;99.90;;;;;;4146435;28;20519;-92
2024/02/04 00:36:43;;;;;;;2.80;2.42;;;11.00;99.90;;;;;;4148409;28;20120;-91
2024/02/04 00:38:44;;;;;;;4.03;2.85;;;11.00;99.90;;;;;;4132516;28;20506;-92
2024/02/04 00:40:44;;;;;;;4.38;2.75;;;10.90;99.90;;;;;;4129926;28;20042;-92
2024/02/04 00:42:46;;;;;;;2.38;2.17;;;10.90;99.90;;;;;;4135374;28;20030;-92
2024/02/04 00:44:49;;;;;;;2.38;2.17;;;11.00;99.90;;;;;;4141472;28;20030;-91
2024/02/04 00:46:50;;;;;;;3.13;2.75;;;10.90;99.90;;;;;;4146845;28;20468;-93
2024/02/04 00:48:51;;;;;;;4.32;2.38;;;10.90;99.90;;;;;;4148634;28;20077;-91
2024/02/04 00:50:52;;;;;;;2.78;2.35;;;11.00;99.90;;;;;;4156017;28;20033;-92
2024/02/04 00:52:55;;;;;;;2.83;2.10;;;10.90;99.90;;;;;;4142949;28;20034;-91
2024/02/04 00:54:55;;;;;;;3.00;2.50;;;10.90;99.90;;;;;;4159121;28;20025;-91
2024/02/04 00:56:57;;;;;;;3.03;2.60;;;10.90;99.90;;;;;;4141547;28;20061;-92
2024/02/04 00:58:58;;;;;;;5.30;2.88;;;10.90;99.90;;;;;;4138458;28;20030;-91
2024/02/04 01:00:58;;;;;;;2.80;2.50;;;10.90;99.90;;;;;;4143356;28;20553;-90
2024/02/04 01:02:59;;;;;;;3.67;2.50;;;10.90;99.90;;;;;;4159428;28;20044;-93
2024/02/04 01:05:00;;;;;;;2.40;2.20;;;10.90;99.90;;;;;;4127645;28;20046;-92
2024/02/04 01:07:00;;;;;;;3.40;2.63;;;10.90;99.90;;;;;;4135158;28;20538;-91
2024/02/04 01:09:01;;;;;;;3.90;2.67;;;10.90;99.90;;;;;;4142405;28;20060;-91
2024/02/04 01:11:02;;;;;;;3.70;2.88;;;10.90;99.90;;;;;;4141769;28;20054;-92
2024/02/04 01:13:04;;;;;;;3.35;2.65;;;10.90;99.90;;;;;;4143252;28;20049;-92
2024/02/04 01:15:05;;;;;;;3.30;3.00;;;10.90;99.90;;;;;;4132572;28;20408;-91
2024/02/04 01:17:07;;;;;;;3.77;3.17;;;10.90;99.90;;;;;;4131514;28;20038;-92
2024/02/04 01:19:07;;;;;;;3.22;2.90;;;10.90;99.90;;;;;;4145558;28;20034;-91
2024/02/04 01:21:09;;;;;;;4.45;3.25;;;10.90;99.90;;;;;;4135510;28;20093;-91
2024/02/04 01:23:10;;;;;;;4.53;3.45;;;10.90;99.90;;;;;;4131885;28;20058;-92
2024/02/04 01:25:11;;;;;;;3.63;3.33;;;10.90;99.90;;;;;;4141317;28;20042;-91
2024/02/04 01:27:12;;;;;;;4.32;3.50;;;10.90;99.90;;;;;;4143401;28;20583;-91
2024/02/04 01:29:12;;;;;;;4.97;3.05;;;10.90;99.90;;;;;;4141002;28;20041;-91
2024/02/04 01:31:13;;;;;;;3.90;3.38;;;10.90;99.90;;;;;;4142023;28;20034;-90
2024/02/04 01:33:14;;;;;;;4.88;3.53;;;10.90;99.90;;;;;;4141628;28;20034;-90
2024/02/04 01:35:15;;;;;;;3.70;3.38;;;10.90;99.90;;;;;;4124572;28;20696;-91
2024/02/04 01:37:16;;;;;;;5.70;3.45;;;11.00;99.90;;;;;;4122836;28;20054;-91
2024/02/04 01:39:16;;;;;;;3.55;3.22;;;10.90;99.90;;;;;;4112299;28;20046;-91
2024/02/04 01:41:17;;;;;;;3.78;3.25;;;10.90;99.90;;;;;;4141337;28;20038;-91
2024/02/04 01:43:18;;;;;;;3.60;3.30;;;10.90;99.90;;;;;;4127757;28;20497;-91
2024/02/04 01:45:19;;;;;;;3.20;2.90;;;10.90;99.90;;;;;;4126098;28;20034;-92
2024/02/04 01:47:20;;;;;;;3.40;3.10;;;10.90;99.90;;;;;;4124885;28;20065;-91
2024/02/04 01:49:21;;;;;;;4.05;3.15;;;10.90;99.90;;;;;;4112045;28;20048;-91
2024/02/04 01:51:22;;;;;;;3.45;3.15;;;11.00;99.90;;;;;;4123446;28;20038;-92
2024/02/04 01:53:26;;;;;;;3.78;3.35;;;10.90;99.90;;;;;;4126647;28;20034;-91
2024/02/04 01:55:26;;;;;;;3.17;2.88;;;11.00;99.90;;;;;;4115605;28;20062;-91
2024/02/04 01:57:27;;;;;;;3.15;2.85;;;11.00;99.90;;;;;;4128495;28;20070;-92
2024/02/04 01:59:30;;;;;;;3.63;3.15;;;11.00;99.90;;;;;;4127599;28;20445;-91
2024/02/04 02:01:34;;;;;;;4.68;3.00;;;11.00;99.90;;;;;;4123558;28;20031;-93
2024/02/04 02:03:36;;;;;;;3.85;3.20;;;11.00;99.90;;;;;;4125405;28;20145;-91
2024/02/04 02:05:37;;;;;;;2.85;2.65;;;11.00;99.90;;;;;;4151842;28;20153;-91
2024/02/04 02:07:40;;;;;;;3.63;2.88;;;11.00;99.90;;;;;;4111331;28;20098;-91
2024/02/04 02:09:41;;;;;;;3.10;2.80;;;11.00;99.90;;;;;;4126535;28;20039;-91
2024/02/04 02:12:05;;;;;;;3.47;2.92;;;11.00;99.90;;;;;;4152469;28;20076;-91
2024/02/04 02:14:10;;;;;;;3.30;2.65;;;11.00;99.90;;;;;;4107055;28;20132;-90
2024/02/04 02:16:19;;;;;;;3.28;2.85;;;11.00;99.90;;;;;;4138787;28;20050;-91
2024/02/04 02:18:42;;;;;;;3.90;3.20;;;11.00;99.90;;;;;;4133022;28;20029;-91
2024/02/04 02:21:04;;;;;;;3.88;3.40;;;11.00;99.90;;;;;;4120087;28;20379;-89
2024/02/04 02:23:12;;;;;;;3.60;3.30;;;11.00;99.90;;;;;;4126596;28;20038;-91
2024/02/04 02:25:13;;;;;;;5.50;4.25;;;11.00;99.90;;;;;;4119957;28;20030;-90
2024/02/04 02:27:14;;;;;;;3.40;3.05;;;11.00;99.90;;;;;;4141768;28;20057;-90
2024/02/04 02:29:15;;;;;;;6.95;4.13;;;11.00;99.90;;;;;;4126805;28;20519;-90
2024/02/04 02:31:16;;;;;;;4.78;4.18;;;11.10;99.90;;;;;;4125488;28;20574;-89
2024/02/04 02:33:17;;;;;;;4.53;3.97;;;11.00;99.90;;;;;;4136038;28;20049;-90
2024/02/04 02:35:18;;;;;;;4.43;4.03;;;11.10;99.90;;;;;;4139622;28;20030;-90
2024/02/04 02:38:03;;;;;;;4.85;4.20;;;11.00;99.90;;;;;;4130535;28;20486;-89
2024/02/04 02:40:07;;;;;;;5.57;4.97;;;11.10;99.90;;;;;;4112700;28;20100;-91
2024/02/04 02:42:10;;;;;;;6.35;4.00;;;11.10;99.90;;;;;;4122202;28;20570;-90
2024/02/04 02:44:12;;;;;;;5.10;4.20;;;11.10;99.90;;;;;;4116690;28;20120;-89
2024/02/04 02:46:13;;;;;;;5.88;4.78;;;11.10;99.90;;;;;;4128707;28;20149;-90
2024/02/04 02:48:14;;;;;;;4.88;4.30;;;11.10;99.90;;;;;;4142501;28;20034;-90
2024/02/04 02:50:16;;;;;;;6.43;5.07;;;11.10;99.90;;;;;;4142411;28;20036;-91
2024/02/04 02:52:17;;;;;;;5.97;4.90;;;11.10;99.90;;;;;;4132870;28;20030;-91
2024/02/04 02:54:17;;;;;;;7.00;5.65;;;11.10;99.90;;;;;;4129842;28;21095;-92
2024/02/04 02:56:18;;;;;;;8.52;5.95;;;11.10;99.90;;;;;;4136404;28;20034;-91
2024/02/04 02:58:19;;;;;;;6.82;5.22;;;11.10;99.90;;;;;;4144462;28;20045;-92
2024/02/04 03:00:20;;;;;;;6.00;5.13;;;11.10;99.90;;;;;;4141169;28;20081;-91
2024/02/04 03:02:21;;;;;;;5.85;5.15;;;11.10;99.90;;;;;;4135918;28;20510;-91
2024/02/04 03:04:21;;;;;;;7.57;6.05;;;11.20;99.90;;;;;;4136662;28;20558;-92
2024/02/04 03:06:22;;;;;;;8.63;6.00;;;11.10;99.90;;;;;;4138293;28;20030;-92
2024/02/04 03:08:23;;;;;;;6.40;5.60;;;11.10;99.90;;;;;;4141349;28;20034;-91
2024/02/04 03:10:24;;;;;;;9.15;6.50;;;11.20;99.90;;;;;;4144511;28;20038;-91
2024/02/04 03:12:24;;;;;;;6.57;5.13;;;11.10;99.90;;;;;;4144807;28;20030;-91
2024/02/04 03:14:25;;;;;;;6.85;5.95;;;11.10;99.90;;;;;;4126011;28;20202;-93
2024/02/04 03:16:26;;;;;;;5.85;5.22;;;11.20;99.90;;;;;;4135533;28;20569;-90
2024/02/04 03:18:27;;;;;;;8.38;5.85;;;11.10;99.90;;;;;;4163042;28;20057;-91
2024/02/04 03:20:28;;;;;;;6.07;5.47;;;11.20;99.90;;;;;;4154195;28;20079;-92
2024/02/04 03:22:29;;;;;;;5.50;4.82;;;11.20;99.90;;;;;;4146094;28;20022;-92
2024/02/04 03:24:30;;;;;;;5.97;5.38;;;11.20;99.90;;;;;;4163859;28;20057;-90
2024/02/04 03:26:30;;;;;;;7.03;6.18;;;11.20;99.90;;;;;;4145527;28;20090;-92
2024/02/04 03:28:31;;;;;;;6.35;5.75;;;11.20;99.90;;;;;;4164324;28;20029;-92
2024/02/04 03:30:32;;;;;;;6.45;5.75;;;11.20;99.90;;;;;;4147919;28;20072;-90
2024/02/04 03:32:33;;;;;;;7.82;6.25;;;11.20;99.90;;;;;;4142513;28;20490;-92
2024/02/04 03:34:35;;;;;;;8.23;6.07;;;11.20;99.90;;;;;;4128343;28;20121;-91
2024/02/04 03:36:38;;;;;;;6.88;5.43;;;11.20;99.90;;;;;;4141535;28;20050;-90
2024/02/04 03:38:39;;;;;;;6.70;5.05;;;11.20;99.90;;;;;;4132563;28;20030;-91
2024/02/04 03:40:42;;;;;;;6.75;6.05;;;11.20;99.90;;;;;;4137953;28;20053;-91
2024/02/04 03:42:43;;;;;;;7.55;5.22;;;11.10;99.90;;;;;;4143826;28;20053;-91
2024/02/04 03:44:44;;;;;;;7.30;6.10;;;11.20;99.90;;;;;;4152615;28;20034;-91
2024/02/04 03:46:48;;;;;;;6.03;5.43;;;11.20;99.90;;;;;;4140813;28;20125;-92
2024/02/04 03:48:49;;;;;;;6.55;5.55;;;11.10;99.90;;;;;;4144344;28;20055;-91
2024/02/04 03:50:50;;;;;;;7.40;5.88;;;11.10;99.90;;;;;;4144477;28;20037;-92
2024/02/04 03:52:50;;;;;;;7.85;5.68;;;11.10;99.90;;;;;;4145699;28;20037;-90
2024/02/04 03:54:51;;;;;;;7.32;5.70;;;11.10;99.90;;;;;;4119854;28;20033;-91
2024/02/04 03:56:52;;;;;;;7.15;6.25;;;11.10;99.90;;;;;;4130394;28;20042;-91
2024/02/04 03:58:52;;;;;;;7.97;5.60;;;11.10;99.90;;;;;;4139829;28;20034;-91
2024/02/04 04:00:53;;;;;;;9.23;6.47;;;11.10;99.90;;;;;;4153479;28;20038;-93
2024/02/04 04:02:54;;;;;;;9.00;6.78;;;11.10;99.90;;;;;;4145646;28;20057;-93
2024/02/04 04:04:55;;;;;;;8.20;6.65;;;11.10;99.90;;;;;;4143941;28;20038;-91
2024/02/04 04:06:55;;;;;;;8.52;7.25;;;11.10;99.90;;;;;;4125940;28;20034;-92
2024/02/04 04:08:58;;;;;;;11.60;7.47;;;11.10;99.90;;;;;;4137025;28;20133;-91
2024/02/04 04:10:59;;;;;;;10.25;7.85;;;11.10;99.90;;;;;;4152374;28;20033;-91
2024/02/04 04:13:00;;;;;;;8.98;6.85;;;11.10;99.90;;;;;;4126745;28;20113;-91
2024/02/04 04:15:01;;;;;;;10.95;7.30;;;11.10;99.90;;;;;;4129187;28;20081;-92
2024/02/04 04:17:01;;;;;;;10.45;7.95;;;11.10;99.90;;;;;;4141474;28;20049;-91
2024/02/04 04:19:02;;;;;;;12.15;7.65;;;11.10;99.90;;;;;;4145597;28;20447;-91
2024/02/04 04:21:03;;;;;;;10.57;6.97;;;11.10;99.90;;;;;;4138908;28;20509;-90
2024/02/04 04:23:03;;;;;;;9.18;7.10;;;11.10;99.90;;;;;;4163078;28;20047;-91
2024/02/04 04:25:05;;;;;;;10.00;6.55;;;11.10;99.90;;;;;;4136505;28;20068;-91
2024/02/04 04:27:06;;;;;;;10.20;7.80;;;11.10;99.90;;;;;;4131261;28;20046;-91
2024/02/04 04:29:07;;;;;;;13.55;7.28;;;11.10;99.90;;;;;;4141308;28;20526;-92
2024/02/04 04:31:09;;;;;;;14.80;8.20;;;11.10;99.90;;;;;;4158326;28;20041;-91
2024/02/04 04:33:11;;;;;;;10.88;7.50;;;11.10;99.90;;;;;;4128116;28;20038;-90
2024/02/04 04:35:13;;;;;;;11.32;7.60;;;11.10;99.90;;;;;;4130751;28;20026;-92
2024/02/04 04:37:13;;;;;;;14.40;7.00;;;11.10;99.90;;;;;;4141414;28;20042;-91
2024/02/04 04:39:14;;;;;;;14.00;7.70;;;11.10;99.90;;;;;;4152206;28;20128;-90
2024/02/04 04:41:15;;;;;;;11.18;7.07;;;11.00;99.90;;;;;;4133408;28;20751;-90
2024/02/04 04:43:15;;;;;;;11.10;7.13;;;11.00;99.90;;;;;;4143783;28;20044;-92
2024/02/04 04:45:16;;;;;;;15.20;7.18;;;11.10;99.90;;;;;;4111958;28;20047;-91
2024/02/04 04:47:17;;;;;;;12.77;7.00;;;11.00;99.90;;;;;;4141052;28;20046;-90
2024/02/04 04:49:17;;;;;;;10.43;5.97;;;11.00;99.90;;;;;;4140085;28;20038;-92
2024/02/04 04:51:18;;;;;;;11.02;7.05;;;11.00;99.90;;;;;;4134620;28;20603;-91
2024/02/04 04:53:19;;;;;;;13.55;6.30;;;11.00;99.90;;;;;;4157926;28;20049;-91
2024/02/04 04:55:19;;;;;;;14.63;6.65;;;11.00;99.90;;;;;;4142689;28;20148;-90
2024/02/04 04:57:20;;;;;;;12.43;6.10;;;11.00;99.90;;;;;;4138259;28;20102;-90
2024/02/04 04:59:21;;;;;;;12.48;6.40;;;11.00;99.90;;;;;;4140711;28;20046;-91
2024/02/04 05:01:21;;;;;;;10.40;5.43;;;11.00;99.90;;;;;;4140963;28;20573;-90
2024/02/04 05:03:24;;;;;;;10.95;6.03;;;11.00;99.90;;;;;;4150215;28;20040;-90
2024/02/04 05:05:25;;;;;;;8.30;5.95;;;11.00;99.90;;;;;;4156637;28;20045;-91
2024/02/04 05:07:26;;;;;;;10.30;6.55;;;11.00;99.90;;;;;;4134946;28;20034;-92
2024/02/04 05:09:26;;;;;;;9.23;5.47;;;11.10;99.90;;;;;;4141407;28;20522;-92
2024/02/04 05:11:29;;;;;;;10.45;6.15;;;11.00;99.90;;;;;;4142091;28;20064;-91
2024/02/04 05:13:30;;;;;;;9.38;5.55;;;11.00;99.90;;;;;;4142364;28;20034;-91
2024/02/04 05:15:31;;;;;;;7.95;5.20;;;11.00;99.90;;;;;;4147115;28;20137;-92
2024/02/04 05:17:33;;;;;;;13.13;6.97;;;11.10;99.90;;;;;;4155146;28;20041;-93
2024/02/04 05:19:35;;;;;;;10.30;6.43;;;11.10;99.90;;;;;;4147721;28;20048;-91
2024/02/04 05:21:40;;;;;;;10.25;5.95;;;11.10;99.90;;;;;;4139181;28;21085;-90
2024/02/04 05:23:41;;;;;;;11.30;6.57;;;11.10;99.90;;;;;;4134445;28;20048;-90
2024/02/04 05:25:42;;;;;;;13.85;6.18;;;11.10;99.90;;;;;;4120642;28;20059;-88
2024/02/04 05:27:44;;;;;;;13.00;7.90;;;11.10;99.90;;;;;;4136875;28;20482;-90
2024/02/04 05:29:45;;;;;;;15.73;8.00;;;11.10;99.90;;;;;;4139062;28;20062;-91
2024/02/04 05:31:45;;;;;;;10.35;7.20;;;11.10;99.90;;;;;;4124054;28;20164;-91
2024/02/04 05:33:46;;;;;;;12.63;7.20;;;11.10;99.90;;;;;;4136306;28;20050;-91
2024/02/04 05:35:47;;;;;;;11.98;7.20;;;11.10;99.90;;;;;;4126255;28;20086;-91
2024/02/04 05:37:47;;;;;;;11.82;8.02;;;11.20;99.90;;;;;;4151074;28;20052;-91
2024/02/04 05:39:48;;;;;;;12.55;7.57;;;11.20;99.90;;;;;;4133437;28;20037;-90
2024/02/04 05:41:49;;;;;;;16.00;8.38;;;11.20;99.90;;;;;;4136134;28;20474;-91
2024/02/04 05:43:50;;;;;;;16.58;8.82;;;11.10;99.90;;;;;;4142557;28;20084;-91
2024/02/04 05:45:50;;;;;;;16.80;10.27;;;11.20;99.90;;;;;;4121604;28;20019;-91
2024/02/04 05:47:51;;;;;;;14.43;8.55;;;11.10;99.90;;;;;;4127712;28;20120;-90
2024/02/04 05:49:52;;;;;;;13.27;9.65;;;11.10;99.90;;;;;;4149193;28;20025;-92
2024/02/04 05:51:53;;;;;;;14.80;9.90;;;11.10;99.90;;;;;;4122591;28;20053;-90
2024/02/04 05:53:54;;;;;;;16.13;10.02;;;11.20;99.90;;;;;;4138579;28;20023;-91
2024/02/04 05:55:54;;;;;;;13.25;9.65;;;11.20;99.90;;;;;;4122002;28;20125;-90
2024/02/04 05:57:56;;;;;;;13.30;9.90;;;11.10;99.90;;;;;;4109017;28;20044;-91
2024/02/04 05:59:59;;;;;;;17.50;11.48;;;11.20;99.90;;;;;;4142207;28;20038;-91
2024/02/04 06:02:00;;;;;;;19.92;12.65;;;11.20;99.90;;;;;;4150910;28;20026;-90
2024/02/04 06:04:01;;;;;;;15.25;10.80;;;11.20;99.90;;;;;;4135646;28;20049;-91
2024/02/04 06:06:02;;;;;;;18.02;12.43;;;11.20;99.90;;;;;;4125149;28;20023;-90
2024/02/04 06:08:03;;;;;;;17.67;11.50;;;11.20;99.90;;;;;;4135620;28;20419;-90
2024/02/04 06:10:09;;;;;;;19.10;12.67;;;11.20;99.90;;;;;;4152179;28;20036;-90
2024/02/04 06:12:10;;;;;;;15.85;11.43;;;11.20;99.90;;;;;;4134350;28;20085;-91
2024/02/04 06:14:11;;;;;;;17.65;13.43;;;11.20;99.90;;;;;;4130963;28;20026;-90
2024/02/04 06:16:12;;;;;;;23.83;13.80;;;11.20;99.90;;;;;;4131341;28;20070;-91
2024/02/04 06:18:12;;;;;;;24.13;15.57;;;11.20;99.90;;;;;;4123955;28;20058;-91
2024/02/04 06:20:13;;;;;;;30.52;19.20;;;11.20;99.90;;;;;;4155031;28;20023;-91
2024/02/04 06:22:17;;;;;;;22.60;15.30;;;11.10;99.90;;;;;;4172812;28;20014;-92
2024/02/04 06:24:20;;;;;;;19.77;15.18;;;11.10;99.90;;;;;;4168236;28;20037;-93
2024/02/04 06:26:21;;;;;;;23.75;16.23;;;11.20;99.90;;;;;;4160294;28;20030;-93
2024/02/04 06:28:22;;;;;;;22.75;16.77;;;11.10;99.90;;;;;;4146377;28;20038;-92
2024/02/04 06:30:23;;;;;;;28.05;17.63;;;11.10;99.90;;;;;;4146818;28;20100;-91
2024/02/04 06:32:24;;;;;;;19.88;14.10;;;11.10;99.90;;;;;;4139779;28;20502;-91
2024/02/04 06:34:24;;;;;;;21.27;15.10;;;11.10;99.90;;;;;;4126366;28;20105;-92
2024/02/04 06:36:27;;;;;;;20.60;13.55;;;11.10;99.90;;;;;;4138410;28;20491;-92
2024/02/04 06:38:27;;;;;;;21.00;14.55;;;11.10;99.90;;;;;;4144713;28;20161;-91
2024/02/04 06:40:28;;;;;;;20.35;14.98;;;11.10;99.90;;;;;;4148737;28;20066;-91
2024/02/04 06:42:29;;;;;;;22.00;14.63;;;11.00;99.90;;;;;;4140112;28;20038;-92
2024/02/04 06:44:31;;;;;;;20.52;14.75;;;11.10;99.90;;;;;;4155005;28;20056;-91
2024/02/04 06:46:31;;;;;;;21.55;14.27;;;11.10;99.90;;;;;;4144650;28;20379;-91
2024/02/04 06:48:32;;;;;;;21.05;13.85;;;11.00;99.90;;;;;;4138658;28;20038;-91
2024/02/04 06:50:33;;;;;;;17.48;12.02;;;11.00;99.90;;;;;;4104853;28;20512;-91
2024/02/04 06:52:34;;;;;;;17.90;11.85;;;11.00;99.90;;;;;;4140756;28;20033;-90
2024/02/04 06:54:35;;;;;;;15.57;12.43;;;11.10;99.90;;;;;;4139366;28;20178;-92
2024/02/04 06:56:36;;;;;;;18.63;13.88;;;11.10;99.90;;;;;;4142541;28;20061;-91
2024/02/04 06:58:38;;;;;;;19.05;12.48;;;11.00;99.90;;;;;;4141509;28;20044;-91
2024/02/04 07:00:39;;;;;;;16.05;12.20;;;11.10;99.90;;;;;;4131395;28;20033;-92
2024/02/04 07:02:39;;;;;;;15.35;10.95;;;11.10;99.90;;;;;;4141071;28;20499;-91
2024/02/04 07:04:40;;;;;;;19.30;12.25;;;11.00;99.90;;;;;;4141253;28;20114;-91
2024/02/04 07:06:41;;;;;;;16.85;12.82;;;11.00;99.90;;;;;;4142725;28;20173;-91
2024/02/04 07:08:42;;;;;;;19.45;11.57;;;11.10;99.90;;;;;;4160164;28;20097;-92
2024/02/04 07:10:43;;;;;;;17.27;11.23;;;11.00;99.90;;;;;;4144160;28;20176;-91
2024/02/04 07:12:43;;;;;;;18.73;12.00;;;11.00;99.90;;;;;;4142576;28;20061;-91
2024/02/04 07:14:44;;;;;;;16.73;11.43;;;11.00;99.90;;;;;;4141818;28;20088;-91
2024/02/04 07:16:45;;;;;;;17.48;11.20;;;11.10;99.90;;;;;;4140596;28;20050;-91
2024/02/04 07:18:46;;;;;;;17.52;10.80;;;11.00;99.90;;;;;;4151919;28;20038;-92
2024/02/04 07:20:48;;;;;;;14.70;10.55;;;11.00;99.90;;;;;;4130323;28;20100;-90
2024/02/04 07:22:48;;;;;;;17.85;12.52;;;11.00;99.90;;;;;;4109901;28;20087;-90
2024/02/04 07:24:49;;;;;;;20.63;12.32;;;11.00;99.90;;;;;;4136930;28;20026;-90
2024/02/04 07:26:50;;;;;;;15.57;10.80;;;11.00;99.90;;;;;;4155750;28;20041;-90
2024/02/04 07:28:50;;;;;;;16.67;12.52;;;11.00;99.90;;;;;;4165039;28;20416;-90
2024/02/04 07:30:51;;;;;;;16.08;10.98;;;11.10;99.90;;;;;;4136294;28;20089;-90
2024/02/04 07:32:53;;;;;;;19.90;12.52;;;11.10;99.90;;;;;;4155958;28;20033;-87
2024/02/04 07:34:53;;;;;;;14.82;10.90;;;11.10;99.90;;;;;;4159207;28;20034;-90
2024/02/04 07:36:54;;;;;;;15.00;10.88;;;11.00;99.90;;;;;;4139134;28;20053;-92
2024/02/04 07:38:55;;;;;;;12.48;9.43;;;11.00;99.90;;;;;;4157795;28;20178;-90
2024/02/04 07:40:58;;;;;;;14.15;10.35;;;11.10;99.90;;;;;;4136055;28;20491;-90
2024/02/04 07:42:59;;;;;;;19.02;11.25;;;11.10;99.90;;;;;;4135861;28;20038;-90
2024/02/04 07:45:01;;;;;;;17.70;11.25;;;11.10;99.90;;;;;;4156755;28;20057;-90
2024/02/04 07:47:02;;;;;;;13.70;9.80;;;11.10;99.90;;;;;;4142001;28;20466;-89
2024/02/04 07:49:02;;;;;;;14.60;9.20;;;11.10;99.90;;;;;;4129576;28;20100;-90
2024/02/04 07:51:03;;;;;;;11.30;8.18;;;11.10;99.90;;;;;;4154778;28;20506;-92
2024/02/04 07:53:04;;;;;;;15.73;9.27;;;11.10;99.90;;;;;;4149176;28;20057;-90
2024/02/04 07:55:06;;;;;;;12.93;9.30;;;11.10;99.90;;;;;;4150319;28;20037;-92
2024/02/04 07:57:08;;;;;;;11.35;8.50;;;11.10;99.90;;;;;;4139571;28;20038;-92
2024/02/04 07:59:09;;;;;;;12.63;8.40;;;11.10;99.90;;;;;;4143275;28;20112;-92
2024/02/04 08:01:11;;;;;;;11.35;8.13;;;11.10;99.90;;;;;;4149753;28;20176;-92
2024/02/04 08:03:12;;;;;;;8.85;7.90;;;11.10;99.90;;;;;;4149837;28;20038;-93
2024/02/04 08:05:14;;;;;;;8.93;7.17;;;11.10;99.90;;;;;;4146707;28;20034;-90
2024/02/04 08:07:17;;;;;;;9.02;7.65;;;11.10;99.90;;;;;;4156032;28;20292;-94
2024/02/04 08:09:18;;;;;;;10.45;7.32;;;11.00;99.90;;;;;;4142456;28;20041;-92
2024/02/04 08:11:21;;;;;;;9.75;6.82;;;11.00;99.90;;;;;;4159417;28;20049;-94
2024/02/04 08:13:22;;;;;;;10.02;7.47;;;11.10;99.90;;;;;;4148915;28;20835;-92
2024/02/04 08:15:24;;;;;;;10.98;7.40;;;11.00;99.90;;;;;;4150689;28;20034;-91
2024/02/04 08:17:30;;;;;;;11.27;8.88;;;11.00;99.90;;;;;;4142319;28;20040;-88
2024/02/04 08:19:31;;;;;;;10.00;8.20;;;11.00;99.90;;;;;;4141070;28;20161;-90
2024/02/04 08:21:32;;;;;;;11.65;8.63;;;11.00;99.90;;;;;;4143518;28;20049;-90
2024/02/04 08:23:33;;;;;;;9.63;7.25;;;11.00;99.90;;;;;;4165263;28;20029;-90
2024/02/04 08:25:34;;;;;;;10.15;8.15;;;11.10;99.90;;;;;;4141780;28;20471;-90
2024/02/04 08:27:34;;;;;;;10.95;8.57;;;11.10;99.90;;;;;;4158103;28;20425;-90
2024/02/04 08:29:35;;;;;;;14.18;9.48;;;11.00;99.90;;;;;;4139912;28;20088;-88
2024/02/04 08:31:35;;;;;;;15.25;9.20;;;11.00;99.90;;;;;;4137621;28;20037;-88
2024/02/04 08:33:36;;;;;;;11.30;7.90;;;11.00;99.90;;;;;;4144242;28;20041;-89
2024/02/04 08:35:37;;;;;;;16.25;9.05;;;11.10;99.90;;;;;;4141426;28;20064;-90
2024/02/04 08:37:37;;;;;;;13.90;9.70;;;11.10;99.90;;;;;;4132969;28;20049;-89
2024/02/04 08:39:41;;;;;;;13.82;8.95;;;11.10;99.90;;;;;;4161087;28;20037;-91
2024/02/04 08:41:42;;;;;;;10.40;7.93;;;11.10;99.90;;;;;;4134768;28;20382;-89
2024/02/04 08:43:43;;;;;;;11.18;8.00;;;11.10;99.90;;;;;;4144409;28;20036;-89
2024/02/04 08:45:43;;;;;;;12.90;9.10;;;11.10;99.90;;;;;;4158028;28;20037;-88
2024/02/04 08:47:44;;;;;;;13.48;8.52;;;11.10;99.90;;;;;;4143133;28;20038;-89
2024/02/04 08:49:45;;;;;;;10.98;7.80;;;11.10;99.90;;;;;;4159731;28;20141;-89
2024/02/04 08:51:45;;;;;;;10.88;7.97;;;11.00;99.90;;;;;;4140698;28;20033;-90
2024/02/04 08:53:46;;;;;;;11.23;8.40;;;11.10;99.90;;;;;;4137967;28;20045;-90
2024/02/04 08:55:47;;;;;;;11.68;8.30;;;11.10;99.90;;;;;;4139355;28;20030;-91
2024/02/04 08:57:48;;;;;;;13.00;8.60;;;11.00;99.90;;;;;;4137627;28;20030;-90
2024/02/04 08:59:48;;;;;;;10.85;7.97;;;11.10;99.90;;;;;;4157610;28;22692;-88
2024/02/04 09:01:49;;;;;;;13.85;8.55;;;11.10;99.90;;;;;;4144478;28;20487;-89
2024/02/04 09:03:51;;;;;;;12.95;7.88;;;11.10;99.90;;;;;;4145358;28;20499;-89
2024/02/04 09:05:51;;;;;;;12.38;8.38;;;11.10;99.90;;;;;;4134407;28;20030;-91
2024/02/04 09:07:55;;;;;;;11.32;8.00;;;11.10;99.90;;;;;;4138434;28;20053;-89
2024/02/04 09:09:55;;;;;;;11.48;8.02;;;11.10;99.90;;;;;;4144760;28;20053;-89
2024/02/04 09:11:56;;;;;;;12.80;7.88;;;11.10;99.90;;;;;;4140046;28;20026;-89
2024/02/04 09:13:57;;;;;;;9.30;7.45;;;11.10;99.90;;;;;;4141985;28;20114;-88
2024/02/04 09:15:58;;;;;;;11.27;7.13;;;11.10;99.90;;;;;;4140009;28;20320;-90
2024/02/04 09:18:01;;;;;;;10.07;7.55;;;11.10;99.90;;;;;;4153943;28;20030;-90
2024/02/04 09:20:02;;;;;;;9.95;6.63;;;11.10;99.90;;;;;;4133446;28;21732;-89
2024/02/04 09:22:03;;;;;;;8.70;6.30;;;11.10;99.90;;;;;;4157105;28;20092;-89
2024/02/04 09:24:04;;;;;;;11.00;6.55;;;11.20;99.90;;;;;;4164898;28;20034;-91
2024/02/04 09:26:04;;;;;;;8.70;6.30;;;11.10;99.90;;;;;;4158711;28;20037;-89
2024/02/04 09:28:05;;;;;;;8.38;6.25;;;11.10;99.90;;;;;;4141711;28;20034;-90
2024/02/04 09:30:06;;;;;;;8.57;6.38;;;11.20;99.90;;;;;;4147888;28;20037;-88
2024/02/04 09:32:07;;;;;;;6.95;5.47;;;11.20;99.90;;;;;;4151024;28;20125;-89
2024/02/04 09:34:08;;;;;;;8.07;5.45;;;11.20;99.90;;;;;;4157610;28;20046;-90
2024/02/04 09:36:09;;;;;;;7.60;5.55;;;11.20;99.90;;;;;;4156643;28;20030;-91
2024/02/04 09:38:11;;;;;;;9.32;5.95;;;11.20;99.90;;;;;;4137548;28;20037;-90
2024/02/04 09:40:12;;;;;;;7.70;5.27;;;11.20;99.90;;;;;;4147584;28;20124;-88
2024/02/04 09:42:23;;;;;;;9.68;5.78;;;11.20;99.90;;;;;;4137130;28;20121;-90
2024/02/04 09:44:24;;;;;;;8.25;6.35;;;11.20;99.90;;;;;;4156736;28;20059;-89
2024/02/04 09:46:25;;;;;;;7.72;5.93;;;11.20;99.90;;;;;;4153977;28;20029;-90
2024/02/04 09:48:31;;;;;;;8.60;6.40;;;11.20;99.90;;;;;;4141453;28;20030;-88
2024/02/04 09:50:32;;;;;;;7.63;5.78;;;11.20;99.90;;;;;;4142090;28;20136;-89
2024/02/04 09:52:36;;;;;;;9.70;6.53;;;11.20;99.90;;;;;;4117710;28;20043;-88
2024/02/04 09:54:45;;;;;;;8.68;6.80;;;11.20;99.90;;;;;;4141910;28;20030;-88
2024/02/04 09:56:47;;;;;;;9.38;6.63;;;11.10;99.90;;;;;;4133702;28;20068;-89
2024/02/04 09:58:52;;;;;;;9.00;5.80;;;11.20;99.90;;;;;;4158057;28;20397;-90
2024/02/04 10:00:54;;;;;;;10.30;6.25;;;11.20;99.90;;;;;;4137893;28;20181;-89
2024/02/04 10:02:55;;;;;;;9.23;6.57;;;11.20;99.90;;;;;;4127991;28;20045;-89
2024/02/04 10:04:56;;;;;;;9.13;6.72;;;11.20;99.90;;;;;;4137447;28;20128;-89
2024/02/04 10:06:58;;;;;;;9.27;6.03;;;11.20;99.90;;;;;;4154669;28;20491;-89
2024/02/04 10:08:59;;;;;;;9.95;6.57;;;11.30;99.90;;;;;;4138203;28;20090;-90
2024/02/04 10:11:00;;;;;;;11.23;7.00;;;11.30;99.90;;;;;;4119994;28;20050;-92
2024/02/04 10:13:08;;;;;;;8.63;6.43;;;11.30;99.90;;;;;;4129524;28;20163;-92
2024/02/04 10:15:13;;;;;;;8.80;5.60;;;11.30;99.90;;;;;;4135501;28;20041;-91
2024/02/04 10:17:15;;;;;;;;;;;11.30;99.90;;;;;;4134037;28;20050;-92
2024/02/04 10:19:21;;;;;;;9.35;5.88;;;11.30;99.90;;;;;;4154149;28;19917;-92
2024/02/04 10:21:24;;;;;;;8.77;6.60;;;11.30;99.90;;;;;;4155366;28;20033;-93
2024/02/04 10:23:27;;;;;;;8.75;6.60;;;11.30;99.90;;;;;;4155283;28;20034;-92
2024/02/04 10:25:28;;;;;;;8.23;5.90;;;11.30;99.90;;;;;;4105922;28;20035;-93
2024/02/04 10:27:29;;;;;;;9.82;5.70;;;11.30;99.90;;;;;;4148766;28;20144;-91